Iowa Colony, Texas
Current Conditions -  °F | °C
As of 9:35 AM on Friday 21 Nov 2014 (Local Time) from KAXH Reporting Station
Heavy Rain Heavy Rain  
Wind Chill: 55°   Ceiling: 900
Heat Index: 55°   Visibility: 4mi
Dew Point: 55°   Wind: 0mph
Humidity: 100%   Direction: NA
Pressure: 30.17"   Gusts: NA
Location:  29.4042°N, 95.4477°W
Report Text: KAXH 211535Z AUTO 00000KT 4SM +RA BKN009 BKN013 OVC024 13/13 A3017 RMK AO2 P0003 T01300130
Loading
Personal Weather Stations






























Interactive Weather Map New forecast layout! Learn more

10-Day Weather Forecast

Advertisements
Track Severe Weather on mobile